Time;durP1;ratioP1;P1;durP2;ratioP2;P2;SDS_P1;SDS_P2;PMS_P1;PMS_P2;Temp;Humidity;BMP_temperature;BMP_pressure;BME280_temperature;BME280_humidity;BME280_pressure;Samples;Min_cycle;Max_cycle;Signal;HPM_P1;HPM_P2
2022/04/16 00:01:49;;;;;;;0.60;0.60;;;3.50;99.90;;;;;;5034081;28;20543;-67
2022/04/16 00:04:41;;;;;;;0.40;0.40;;;3.40;99.90;;;;;;5033298;28;20413;-67
2022/04/16 00:07:29;;;;;;;0.50;0.50;;;3.30;99.90;;;;;;5032842;28;20436;-67
2022/04/16 00:10:17;;;;;;;0.50;0.50;;;3.20;99.90;;;;;;5034188;28;20429;-67
2022/04/16 00:13:06;;;;;;;0.57;0.57;;;3.10;99.90;;;;;;5046644;28;20448;-67
2022/04/16 00:15:54;;;;;;;0.50;0.50;;;3.10;99.90;;;;;;5052374;28;20425;-68
2022/04/16 00:18:42;;;;;;;0.50;0.50;;;3.10;99.90;;;;;;5053394;28;20436;-68
2022/04/16 00:21:32;;;;;;;0.77;0.77;;;3.00;99.90;;;;;;5052741;28;20457;-70
2022/04/16 00:24:20;;;;;;;0.50;0.50;;;3.00;99.90;;;;;;5050824;28;20935;-67
2022/04/16 00:27:09;;;;;;;0.50;0.50;;;2.90;99.90;;;;;;5052030;28;20445;-67
2022/04/16 00:29:57;;;;;;;0.50;0.50;;;2.80;99.90;;;;;;5051259;28;20425;-68
2022/04/16 00:32:45;;;;;;;0.50;0.50;;;2.70;99.90;;;;;;5052829;28;20445;-68
2022/04/16 00:35:35;;;;;;;0.50;0.50;;;2.70;99.90;;;;;;5051289;28;20437;-69
2022/04/16 00:38:24;;;;;;;0.50;0.50;;;2.70;99.90;;;;;;5051614;28;20436;-69
2022/04/16 00:41:13;;;;;;;1.70;1.70;;;2.60;99.90;;;;;;5051932;28;20429;-68
2022/04/16 00:44:01;;;;;;;0.50;0.50;;;2.50;99.90;;;;;;5052681;28;20419;-69
2022/04/16 00:46:49;;;;;;;0.50;0.50;;;2.50;99.90;;;;;;5039291;28;21002;-68
2022/04/16 00:49:37;;;;;;;0.50;0.50;;;2.50;99.90;;;;;;5039541;28;20433;-68
2022/04/16 00:52:26;;;;;;;0.50;0.50;;;2.50;99.90;;;;;;5033369;28;20457;-68
2022/04/16 00:55:16;;;;;;;0.50;0.50;;;2.40;99.90;;;;;;5033693;28;20433;-68
2022/04/16 00:58:04;;;;;;;0.50;0.50;;;2.40;99.90;;;;;;5032677;28;20496;-68
2022/04/16 01:00:52;;;;;;;0.50;0.50;;;2.40;99.90;;;;;;5037290;28;20816;-68
2022/04/16 01:03:43;;;;;;;0.50;0.50;;;2.30;99.90;;;;;;5034379;28;20465;-68
2022/04/16 01:06:42;;;;;;;0.50;0.50;;;2.30;99.90;;;;;;5033269;28;20450;-68
2022/04/16 01:09:30;;;;;;;0.60;0.60;;;2.30;99.90;;;;;;5034562;28;20461;-68
2022/04/16 01:12:20;;;;;;;0.50;0.50;;;2.20;99.90;;;;;;5032614;28;20452;-67
2022/04/16 01:15:10;;;;;;;0.50;0.50;;;2.20;99.90;;;;;;5033598;28;20778;-68
2022/04/16 01:18:02;;;;;;;0.50;0.50;;;2.20;99.90;;;;;;5033303;28;20433;-68
2022/04/16 01:20:50;;;;;;;0.50;0.50;;;2.10;99.90;;;;;;5033345;28;20935;-68
2022/04/16 01:23:39;;;;;;;0.50;0.50;;;2.10;99.90;;;;;;5032837;28;20524;-68
2022/04/16 01:26:29;;;;;;;0.50;0.50;;;2.00;99.90;;;;;;5033044;28;20484;-68
2022/04/16 01:29:17;;;;;;;0.50;0.50;;;2.00;99.90;;;;;;5031969;28;20425;-67
2022/04/16 01:32:06;;;;;;;0.50;0.50;;;2.00;99.90;;;;;;5031209;28;20449;-67
2022/04/16 01:34:54;;;;;;;0.50;0.50;;;2.00;99.90;;;;;;5027642;28;20445;-68
2022/04/16 01:37:43;;;;;;;0.50;0.50;;;1.80;99.90;;;;;;5033048;28;20461;-68
2022/04/16 01:40:32;;;;;;;0.50;0.50;;;1.80;99.90;;;;;;5033229;28;20460;-67
2022/04/16 01:43:20;;;;;;;0.50;0.50;;;1.70;99.90;;;;;;5032612;28;21021;-67
2022/04/16 01:46:08;;;;;;;0.50;0.50;;;1.70;99.90;;;;;;5031555;28;20461;-68
2022/04/16 01:48:56;;;;;;;0.50;0.50;;;1.60;99.90;;;;;;5031386;28;20556;-68
2022/04/16 01:51:45;;;;;;;0.50;0.50;;;1.60;99.90;;;;;;5030954;28;20785;-67
2022/04/16 01:54:34;;;;;;;0.40;0.40;;;1.60;99.90;;;;;;5030727;28;20997;-68
2022/04/16 01:57:24;;;;;;;0.50;0.50;;;1.50;99.90;;;;;;5031558;28;20429;-67
2022/04/16 02:00:14;;;;;;;0.50;0.50;;;1.50;99.90;;;;;;5032074;28;20413;-67
2022/04/16 02:03:03;;;;;;;0.50;0.50;;;1.50;99.90;;;;;;5032141;28;20464;-67
2022/04/16 02:05:52;;;;;;;0.50;0.50;;;1.40;99.90;;;;;;5032240;28;20453;-67
2022/04/16 02:08:40;;;;;;;0.50;0.50;;;1.40;99.90;;;;;;5033537;28;20457;-68
2022/04/16 02:11:29;;;;;;;0.50;0.50;;;1.40;99.90;;;;;;5032018;28;20425;-68
2022/04/16 02:14:18;;;;;;;0.50;0.50;;;1.40;99.90;;;;;;5032883;28;20421;-67
2022/04/16 02:17:06;;;;;;;0.50;0.50;;;1.30;99.90;;;;;;5032052;28;20476;-68
2022/04/16 02:19:54;;;;;;;0.40;0.40;;;1.30;99.90;;;;;;5033008;28;21029;-67
2022/04/16 02:22:43;;;;;;;0.50;0.50;;;1.30;99.90;;;;;;5030895;28;21045;-67
2022/04/16 02:25:33;;;;;;;0.60;0.60;;;1.20;99.90;;;;;;5031090;28;20842;-67
2022/04/16 02:28:21;;;;;;;0.50;0.50;;;1.30;99.90;;;;;;5032673;28;20453;-67
2022/04/16 02:31:11;;;;;;;0.50;0.50;;;1.30;99.90;;;;;;5031482;28;20425;-67
2022/04/16 02:33:59;;;;;;;0.50;0.50;;;1.30;99.90;;;;;;5031452;28;20437;-68
2022/04/16 02:36:47;;;;;;;0.50;0.50;;;1.40;99.90;;;;;;5035085;28;20449;-68
2022/04/16 02:39:35;;;;;;;0.50;0.50;;;1.50;99.90;;;;;;5033649;28;20432;-67
2022/04/16 02:42:23;;;;;;;0.60;0.60;;;1.50;99.90;;;;;;5031448;28;20490;-68
2022/04/16 02:48:21;;;;;;;0.50;0.50;;;1.50;99.90;;;;;;5032711;28;20997;-68
2022/04/16 02:51:09;;;;;;;0.50;0.50;;;1.50;99.90;;;;;;5032542;28;20437;-68
2022/04/16 02:53:57;;;;;;;0.50;0.50;;;1.50;99.90;;;;;;5031227;28;20468;-68
2022/04/16 02:56:45;;;;;;;0.50;0.50;;;1.50;99.90;;;;;;5035392;28;20857;-68
2022/04/16 02:59:35;;;;;;;0.50;0.50;;;1.50;99.90;;;;;;5046726;28;20425;-68
2022/04/16 03:02:23;;;;;;;0.40;0.40;;;1.60;99.90;;;;;;5045052;28;20454;-69
2022/04/16 03:05:13;;;;;;;0.50;0.50;;;1.60;99.90;;;;;;5047928;28;20426;-68
2022/04/16 03:08:01;;;;;;;0.50;0.50;;;1.50;99.90;;;;;;5049713;28;20430;-69
2022/04/16 03:10:49;;;;;;;0.50;0.50;;;1.50;99.90;;;;;;5050671;28;20456;-69
2022/04/16 03:13:37;;;;;;;0.50;0.50;;;1.40;99.90;;;;;;5051912;28;20507;-70
2022/04/16 03:19:32;;;;;;;0.50;0.50;;;1.40;99.90;;;;;;5054001;28;20425;-69
2022/04/16 03:22:21;;;;;;;0.50;0.50;;;1.60;99.90;;;;;;5052993;28;20453;-68
2022/04/16 03:25:10;;;;;;;0.50;0.50;;;1.70;99.90;;;;;;5053891;28;20413;-69
2022/04/16 03:27:58;;;;;;;0.50;0.50;;;1.80;99.90;;;;;;5053231;28;20433;-68
2022/04/16 03:30:47;;;;;;;0.50;0.50;;;1.90;99.90;;;;;;5042218;28;20544;-67
2022/04/16 03:33:36;;;;;;;0.50;0.50;;;2.00;99.90;;;;;;5034573;28;20437;-68
2022/04/16 03:36:24;;;;;;;0.50;0.50;;;2.20;99.90;;;;;;5035360;28;20429;-67
2022/04/16 03:39:14;;;;;;;0.50;0.50;;;2.30;99.90;;;;;;5036594;28;20432;-68
2022/04/16 03:42:02;;;;;;;0.50;0.50;;;2.40;99.90;;;;;;5034243;28;20438;-69
2022/04/16 03:44:50;;;;;;;0.50;0.50;;;2.50;99.90;;;;;;5036185;28;20474;-67
2022/04/16 03:47:38;;;;;;;0.50;0.50;;;2.60;99.90;;;;;;5035340;28;20509;-69
2022/04/16 03:50:28;;;;;;;0.50;0.50;;;2.60;99.90;;;;;;5033856;28;20504;-68
2022/04/16 03:53:16;;;;;;;0.50;0.50;;;2.70;99.90;;;;;;5032899;28;20557;-67
2022/04/16 04:02:17;;;;;;;0.50;0.50;;;2.60;99.90;;;;;;5034625;28;20519;-67
2022/04/16 04:05:07;;;;;;;0.50;0.50;;;2.60;99.90;;;;;;5034999;28;20468;-68
2022/04/16 04:07:56;;;;;;;0.50;0.50;;;2.60;99.90;;;;;;5033515;28;20429;-68
2022/04/16 04:10:45;;;;;;;0.50;0.50;;;2.60;99.90;;;;;;5035344;28;20425;-67
2022/04/16 04:13:35;;;;;;;0.50;0.50;;;2.70;99.90;;;;;;5033029;28;20966;-68
2022/04/16 04:16:23;;;;;;;0.50;0.50;;;2.70;99.90;;;;;;5033913;28;20436;-68
2022/04/16 04:19:11;;;;;;;0.50;0.50;;;2.70;99.90;;;;;;5035034;28;20425;-68
2022/04/16 04:21:59;;;;;;;0.70;0.70;;;2.70;99.90;;;;;;5034712;28;20444;-68
2022/04/16 04:24:47;;;;;;;0.40;0.40;;;2.70;99.90;;;;;;5035555;28;20481;-67
2022/04/16 04:27:35;;;;;;;0.50;0.50;;;2.80;99.90;;;;;;5033380;28;20556;-67
2022/04/16 04:30:24;;;;;;;0.50;0.50;;;2.80;99.90;;;;;;5034029;28;20850;-67
2022/04/16 04:33:13;;;;;;;0.50;0.50;;;2.80;99.90;;;;;;5033772;28;20457;-68
2022/04/16 04:36:01;;;;;;;0.47;0.47;;;2.80;99.90;;;;;;5033337;28;20425;-67
2022/04/16 04:38:49;;;;;;;0.50;0.50;;;2.90;99.90;;;;;;5032909;28;20425;-67
2022/04/16 04:41:37;;;;;;;0.60;0.60;;;3.00;99.90;;;;;;5035233;28;20433;-68
2022/04/16 04:44:25;;;;;;;0.50;0.50;;;3.00;99.90;;;;;;5034733;28;20468;-68
2022/04/16 04:47:15;;;;;;;0.50;0.50;;;3.00;99.90;;;;;;5035200;28;20965;-68
2022/04/16 04:50:04;;;;;;;0.50;0.50;;;3.10;99.90;;;;;;5034145;28;20965;-67
2022/04/16 04:52:52;;;;;;;0.40;0.40;;;3.10;99.90;;;;;;5034237;28;20464;-67
2022/04/16 04:55:40;;;;;;;0.73;0.73;;;3.10;99.90;;;;;;5034001;28;21088;-69
2022/04/16 04:58:28;;;;;;;0.40;0.40;;;3.10;99.90;;;;;;5033840;28;20425;-67
2022/04/16 05:01:18;;;;;;;0.50;0.50;;;3.10;99.90;;;;;;5033196;28;20453;-68
2022/04/16 05:04:07;;;;;;;0.47;0.47;;;3.20;99.90;;;;;;5033499;28;20449;-67
2022/04/16 05:06:56;;;;;;;0.50;0.50;;;3.30;99.90;;;;;;5033030;28;20461;-68
2022/04/16 05:09:44;;;;;;;0.47;0.47;;;3.40;99.90;;;;;;5032317;28;20430;-67
2022/04/16 05:12:33;;;;;;;0.50;0.50;;;3.40;99.90;;;;;;5032879;28;20469;-68
2022/04/16 05:15:21;;;;;;;0.50;0.50;;;3.30;99.90;;;;;;5033999;28;20418;-68
2022/04/16 05:18:09;;;;;;;0.50;0.50;;;3.30;99.90;;;;;;5033270;28;20462;-69
2022/04/16 05:20:58;;;;;;;0.50;0.50;;;3.30;99.90;;;;;;5033686;28;20429;-68
2022/04/16 05:23:46;;;;;;;0.40;0.40;;;3.30;99.90;;;;;;5033396;28;21017;-67
2022/04/16 05:26:35;;;;;;;0.73;0.73;;;3.20;99.90;;;;;;5032879;28;20480;-67
2022/04/16 05:29:24;;;;;;;0.50;0.50;;;3.20;99.90;;;;;;5033882;28;20431;-67
2022/04/16 05:32:12;;;;;;;1.73;1.63;;;3.30;99.90;;;;;;5032503;28;20537;-68
2022/04/16 05:35:00;;;;;;;1.33;1.23;;;3.30;99.90;;;;;;5032550;28;20788;-68
2022/04/16 05:37:49;;;;;;;0.50;0.50;;;3.30;99.90;;;;;;5032057;28;20577;-67
2022/04/16 05:40:38;;;;;;;0.50;0.50;;;3.40;99.90;;;;;;5032696;28;20425;-68
2022/04/16 05:43:27;;;;;;;0.50;0.50;;;3.50;99.90;;;;;;5034063;28;20445;-71
2022/04/16 05:46:15;;;;;;;0.50;0.50;;;3.70;99.90;;;;;;5033029;28;20424;-68
2022/04/16 05:49:03;;;;;;;0.50;0.50;;;3.80;99.90;;;;;;5035613;28;20513;-68
2022/04/16 05:51:51;;;;;;;0.50;0.50;;;3.80;99.90;;;;;;5034226;28;20461;-68
2022/04/16 05:54:41;;;;;;;0.40;0.40;;;3.90;99.90;;;;;;5032160;28;20429;-68
2022/04/16 05:57:30;;;;;;;0.50;0.50;;;4.00;99.90;;;;;;5032867;28;20575;-68
2022/04/16 06:00:18;;;;;;;0.50;0.50;;;4.00;99.90;;;;;;5033074;28;20420;-68
2022/04/16 06:03:07;;;;;;;0.50;0.50;;;4.20;99.90;;;;;;5032712;28;20828;-69
2022/04/16 06:05:56;;;;;;;0.50;0.50;;;4.40;99.90;;;;;;5031968;28;20528;-68
2022/04/16 06:08:44;;;;;;;0.50;0.50;;;4.40;99.90;;;;;;5031653;28;20425;-69
2022/04/16 06:11:33;;;;;;;0.50;0.50;;;4.50;99.90;;;;;;5033476;28;20426;-68
2022/04/16 06:14:21;;;;;;;0.50;0.50;;;4.50;99.90;;;;;;5032101;28;20481;-67
2022/04/16 06:17:10;;;;;;;0.47;0.47;;;4.70;99.90;;;;;;5032523;28;20440;-68
2022/04/16 06:19:58;;;;;;;0.50;0.50;;;4.80;99.90;;;;;;5034033;28;20425;-68
2022/04/16 06:22:46;;;;;;;0.50;0.50;;;4.90;99.90;;;;;;5031919;28;20468;-67
2022/04/16 06:25:34;;;;;;;0.50;0.50;;;5.00;99.90;;;;;;5032810;28;20540;-68
2022/04/16 06:28:24;;;;;;;0.50;0.50;;;5.00;99.90;;;;;;5032640;28;20436;-67
2022/04/16 06:31:12;;;;;;;0.50;0.50;;;5.20;99.90;;;;;;5032365;28;20426;-68
2022/04/16 06:34:06;;;;;;;0.50;0.50;;;5.30;99.90;;;;;;5032481;28;20428;-68
2022/04/16 06:36:54;;;;;;;0.50;0.50;;;5.50;99.90;;;;;;5033270;28;20816;-68
2022/04/16 06:39:42;;;;;;;0.90;0.90;;;5.70;99.90;;;;;;5033543;28;20940;-68
2022/04/16 06:42:33;;;;;;;1.37;1.27;;;6.00;99.90;;;;;;5036241;28;20880;-68
2022/04/16 06:45:22;;;;;;;0.47;0.47;;;6.10;99.90;;;;;;5036271;28;20461;-68
2022/04/16 06:48:10;;;;;;;0.50;0.50;;;6.10;99.90;;;;;;5035825;28;20451;-67
2022/04/16 06:50:58;;;;;;;0.70;0.70;;;6.20;99.90;;;;;;5036099;28;20478;-67
2022/04/16 06:53:47;;;;;;;0.40;0.40;;;6.20;99.90;;;;;;5034944;28;20551;-67
2022/04/16 06:56:35;;;;;;;0.70;0.70;;;6.10;99.90;;;;;;5037256;28;20428;-68
2022/04/16 06:59:23;;;;;;;0.50;0.50;;;6.00;99.90;;;;;;5036776;28;20951;-68
2022/04/16 07:02:12;;;;;;;0.40;0.40;;;5.80;99.90;;;;;;5035093;28;20445;-68
2022/04/16 07:05:02;;;;;;;0.50;0.50;;;5.80;99.90;;;;;;5035785;28;20464;-67
2022/04/16 07:07:50;;;;;;;0.60;0.60;;;5.80;99.90;;;;;;5036281;28;20800;-68
2022/04/16 07:10:39;;;;;;;0.50;0.50;;;5.80;99.90;;;;;;5035389;28;20429;-68
2022/04/16 07:13:27;;;;;;;0.40;0.40;;;5.80;99.90;;;;;;5035845;28;20441;-68
2022/04/16 07:16:15;;;;;;;0.40;0.40;;;5.90;99.90;;;;;;5037167;28;20422;-68
2022/04/16 07:19:04;;;;;;;0.40;0.40;;;5.90;99.90;;;;;;5036722;28;20956;-68
2022/04/16 07:21:54;;;;;;;0.40;0.40;;;6.10;99.90;;;;;;5035005;28;20509;-69
2022/04/16 07:24:42;;;;;;;1.90;1.27;;;6.10;99.90;;;;;;5036388;28;20448;-68
2022/04/16 07:27:31;;;;;;;0.50;0.50;;;6.20;99.90;;;;;;5035320;28;20421;-69
2022/04/16 07:30:19;;;;;;;0.50;0.50;;;6.10;99.90;;;;;;5037909;28;20421;-67
2022/04/16 07:33:07;;;;;;;0.87;0.87;;;6.20;99.90;;;;;;5034321;28;20499;-67
2022/04/16 07:35:57;;;;;;;0.50;0.50;;;6.10;99.90;;;;;;5034931;28;20476;-67
2022/04/16 07:38:45;;;;;;;0.50;0.50;;;6.00;99.90;;;;;;5035582;28;20477;-69
2022/04/16 07:41:33;;;;;;;0.50;0.50;;;6.00;99.90;;;;;;5035302;28;20469;-68
2022/04/16 07:44:21;;;;;;;0.40;0.40;;;6.10;99.90;;;;;;5034141;28;20429;-68
2022/04/16 07:47:09;;;;;;;0.40;0.40;;;6.10;99.90;;;;;;5034388;28;20421;-68
2022/04/16 07:49:57;;;;;;;0.40;0.40;;;6.20;99.90;;;;;;5034279;28;20950;-68
2022/04/16 07:52:48;;;;;;;0.60;0.60;;;6.30;99.90;;;;;;5034882;28;21064;-68
2022/04/16 07:55:36;;;;;;;0.40;0.40;;;6.30;99.90;;;;;;5034591;28;20430;-68
2022/04/16 07:58:24;;;;;;;0.70;0.70;;;6.20;99.90;;;;;;5033968;28;20950;-68
2022/04/16 08:01:12;;;;;;;0.50;0.50;;;6.20;99.90;;;;;;5033106;28;20420;-67
2022/04/16 08:04:01;;;;;;;0.67;0.67;;;6.30;99.90;;;;;;5035039;28;20441;-68
2022/04/16 08:06:50;;;;;;;0.50;0.50;;;6.40;99.90;;;;;;5034059;28;20465;-68
2022/04/16 08:09:40;;;;;;;0.50;0.50;;;6.50;99.90;;;;;;5034189;28;20432;-68
2022/04/16 08:12:28;;;;;;;0.40;0.40;;;6.70;99.90;;;;;;5034510;28;20500;-67
2022/04/16 08:15:16;;;;;;;0.40;0.40;;;6.70;99.90;;;;;;5033974;28;20424;-67
2022/04/16 08:18:04;;;;;;;0.40;0.40;;;6.80;99.90;;;;;;5034161;28;20706;-67
2022/04/16 08:20:52;;;;;;;0.50;0.50;;;6.90;99.90;;;;;;5036267;28;20425;-68
2022/04/16 08:23:54;;;;;;;0.50;0.50;;;7.00;99.90;;;;;;5035130;28;20516;-68
2022/04/16 08:26:43;;;;;;;0.40;0.40;;;7.00;99.90;;;;;;5034668;28;20504;-68
2022/04/16 08:29:32;;;;;;;0.40;0.40;;;7.10;99.90;;;;;;5032492;28;20941;-68
2022/04/16 08:32:20;;;;;;;0.50;0.50;;;7.00;99.90;;;;;;5034441;28;20965;-67
2022/04/16 08:35:11;;;;;;;0.47;0.47;;;7.10;99.90;;;;;;5034695;28;20432;-67
2022/04/16 08:37:59;;;;;;;0.40;0.40;;;7.20;99.90;;;;;;5033490;28;20547;-68
2022/04/16 08:40:50;;;;;;;0.50;0.50;;;7.20;99.90;;;;;;5033530;28;20965;-68
2022/04/16 08:43:42;;;;;;;0.40;0.40;;;7.30;99.90;;;;;;5032426;28;20957;-68
2022/04/16 08:46:33;;;;;;;0.40;0.40;;;7.30;99.90;;;;;;5033485;28;20461;-68
2022/04/16 08:49:22;;;;;;;0.40;0.40;;;7.30;99.90;;;;;;5033098;28;20525;-68
2022/04/16 08:52:11;;;;;;;0.40;0.40;;;7.30;99.90;;;;;;5033969;28;20457;-68
2022/04/16 08:55:01;;;;;;;0.50;0.50;;;7.30;99.90;;;;;;5034431;28;20523;-68
2022/04/16 08:57:49;;;;;;;0.40;0.40;;;7.30;99.90;;;;;;5032999;28;20509;-68
2022/04/16 09:00:38;;;;;;;0.40;0.40;;;7.40;99.90;;;;;;5032760;28;20449;-67
2022/04/16 09:03:32;;;;;;;0.40;0.40;;;7.50;99.90;;;;;;5031778;28;20441;-69
2022/04/16 09:06:23;;;;;;;0.40;0.40;;;7.60;99.90;;;;;;5031682;28;20504;-67
2022/04/16 09:09:12;;;;;;;0.50;0.50;;;7.60;99.90;;;;;;5033863;28;20429;-68
2022/04/16 09:12:00;;;;;;;0.40;0.40;;;7.60;99.90;;;;;;5032980;28;21095;-67
2022/04/16 09:14:48;;;;;;;0.50;0.50;;;7.70;99.90;;;;;;5032218;28;20418;-68
2022/04/16 09:17:38;;;;;;;0.40;0.40;;;7.70;99.90;;;;;;5033331;28;20449;-68
2022/04/16 09:20:31;;;;;;;0.50;0.50;;;7.80;99.90;;;;;;5033691;28;20500;-68
2022/04/16 09:23:20;;;;;;;0.40;0.40;;;8.00;99.90;;;;;;5034102;28;20456;-68
2022/04/16 09:26:09;;;;;;;0.40;0.40;;;8.10;99.90;;;;;;5031972;28;20476;-68
2022/04/16 09:28:57;;;;;;;0.50;0.50;;;8.20;99.90;;;;;;5031920;28;20507;-68
2022/04/16 09:31:48;;;;;;;0.70;0.70;;;8.40;99.90;;;;;;5033987;28;20425;-68
2022/04/16 09:34:47;;;;;;;0.43;0.43;;;8.30;99.90;;;;;;5032349;28;20801;-68
2022/04/16 09:37:35;;;;;;;0.40;0.40;;;8.50;99.90;;;;;;5034168;28;20453;-68
2022/04/16 09:40:26;;;;;;;0.50;0.50;;;8.30;99.90;;;;;;5033280;28;20425;-68
2022/04/16 09:43:14;;;;;;;0.50;0.50;;;8.30;99.90;;;;;;5032836;28;20441;-68
2022/04/16 09:46:10;;;;;;;0.40;0.40;;;8.30;99.90;;;;;;5033334;28;20469;-69
2022/04/16 09:49:03;;;;;;;0.40;0.40;;;8.30;99.90;;;;;;5033479;28;20778;-68
2022/04/16 09:51:53;;;;;;;0.40;0.40;;;8.40;99.90;;;;;;5032018;28;20448;-69
2022/04/16 09:54:43;;;;;;;0.50;0.50;;;8.50;99.90;;;;;;5032764;28;20441;-69
2022/04/16 09:57:33;;;;;;;1.33;1.23;;;8.40;99.90;;;;;;5032199;28;20425;-68
2022/04/16 10:00:21;;;;;;;0.50;0.50;;;8.40;99.90;;;;;;5031895;28;20426;-67
2022/04/16 10:03:11;;;;;;;0.40;0.40;;;8.40;99.90;;;;;;5033819;28;20441;-67
2022/04/16 10:06:00;;;;;;;0.40;0.40;;;8.50;99.90;;;;;;5033303;28;20429;-69
2022/04/16 10:08:50;;;;;;;0.40;0.40;;;8.60;99.90;;;;;;5031790;28;20428;-69
2022/04/16 10:14:57;;;;;;;0.40;0.40;;;8.80;99.90;;;;;;5032833;28;20811;-67
2022/04/16 10:17:50;;;;;;;0.50;0.50;;;8.90;99.90;;;;;;5037246;28;20420;-67
2022/04/16 10:20:38;;;;;;;0.50;0.50;;;9.00;99.90;;;;;;5035535;28;20493;-69
2022/04/16 10:23:31;;;;;;;0.50;0.50;;;9.10;99.90;;;;;;5034632;28;20441;-69
2022/04/16 10:26:20;;;;;;;0.47;0.47;;;9.30;99.90;;;;;;5036018;28;20457;-69
2022/04/16 10:29:08;;;;;;;0.50;0.50;;;9.40;99.90;;;;;;5035434;28;20424;-69
2022/04/16 10:31:56;;;;;;;0.50;0.50;;;9.40;99.90;;;;;;5037853;28;20441;-69
2022/04/16 10:34:45;;;;;;;0.40;0.40;;;9.50;99.90;;;;;;5035592;28;20421;-68
2022/04/16 10:37:39;;;;;;;0.53;0.53;;;9.50;99.90;;;;;;5036789;28;20487;-69
2022/04/16 10:40:28;;;;;;;0.40;0.40;;;9.50;99.90;;;;;;5036578;28;20479;-69
2022/04/16 10:43:26;;;;;;;0.40;0.40;;;9.50;99.90;;;;;;5034989;28;20441;-68
2022/04/16 10:46:14;;;;;;;0.40;0.40;;;9.50;99.90;;;;;;5035004;28;20428;-69
2022/04/16 10:49:07;;;;;;;0.40;0.40;;;9.60;99.90;;;;;;5035541;28;20599;-68
2022/04/16 10:51:56;;;;;;;0.50;0.50;;;9.80;99.90;;;;;;5036332;28;20432;-70
2022/04/16 10:54:47;;;;;;;0.40;0.40;;;9.80;99.90;;;;;;5036399;28;20527;-68
2022/04/16 10:57:35;;;;;;;0.40;0.40;;;9.90;99.90;;;;;;5037151;28;20417;-70
2022/04/16 11:00:36;;;;;;;0.40;0.40;;;10.00;99.90;;;;;;5036107;28;20436;-68
2022/04/16 11:03:30;;;;;;;0.40;0.40;;;10.10;99.90;;;;;;5036234;28;20571;-69
2022/04/16 11:06:18;;;;;;;0.50;0.50;;;10.20;99.90;;;;;;5037165;28;20791;-68
2022/04/16 11:09:06;;;;;;;0.40;0.40;;;10.30;99.90;;;;;;5036514;28;20463;-68
2022/04/16 11:11:55;;;;;;;0.40;0.40;;;10.30;99.90;;;;;;5036355;28;20440;-68
2022/04/16 11:14:45;;;;;;;0.60;0.60;;;10.40;99.90;;;;;;5036650;28;20476;-68
2022/04/16 11:17:35;;;;;;;0.40;0.40;;;10.30;99.90;;;;;;5035896;28;20496;-67
2022/04/16 11:20:23;;;;;;;0.50;0.50;;;10.30;99.90;;;;;;5036577;28;20444;-68
2022/04/16 11:23:11;;;;;;;0.47;0.47;;;10.30;99.90;;;;;;5035208;28;20440;-69
2022/04/16 11:35:24;;;;;;;0.50;0.50;;;10.40;99.90;;;;;;5037248;28;20443;-69
2022/04/16 11:38:12;;;;;;;0.50;0.50;;;10.50;99.90;;;;;;5035774;28;20488;-68
2022/04/16 11:41:01;;;;;;;0.50;0.50;;;10.60;99.90;;;;;;5033842;28;20429;-68
2022/04/16 11:43:51;;;;;;;0.40;0.40;;;10.60;99.90;;;;;;5034371;28;20792;-68
2022/04/16 11:46:41;;;;;;;0.40;0.40;;;10.60;99.90;;;;;;5035298;28;20427;-68
2022/04/16 11:49:30;;;;;;;0.40;0.40;;;10.70;99.90;;;;;;5037006;28;20429;-66
2022/04/16 11:52:25;;;;;;;0.40;0.40;;;10.90;99.90;;;;;;5035645;28;20733;-67
2022/04/16 11:55:16;;;;;;;0.40;0.40;;;10.90;99.60;;;;;;5034684;28;20437;-68
2022/04/16 11:58:08;;;;;;;0.40;0.40;;;11.00;99.90;;;;;;5035263;28;20428;-67
2022/04/16 12:00:57;;;;;;;0.47;0.47;;;11.00;98.70;;;;;;5035096;28;20843;-67
2022/04/16 12:03:46;;;;;;;0.40;0.40;;;11.10;99.20;;;;;;5035816;28;20453;-69
2022/04/16 12:06:36;;;;;;;0.40;0.40;;;11.10;98.80;;;;;;5035655;28;20433;-67
2022/04/16 12:09:26;;;;;;;0.40;0.40;;;11.10;98.30;;;;;;5035921;28;20791;-67
2022/04/16 12:12:18;;;;;;;0.40;0.40;;;11.20;98.20;;;;;;5035168;28;20453;-67
2022/04/16 12:15:07;;;;;;;0.40;0.40;;;11.10;98.40;;;;;;5035162;28;20449;-68
2022/04/16 12:17:57;;;;;;;0.50;0.50;;;11.20;98.90;;;;;;5036563;28;20417;-69
2022/04/16 12:20:47;;;;;;;0.40;0.40;;;11.30;97.50;;;;;;5035604;28;20426;-70
2022/04/16 12:23:38;;;;;;;0.40;0.40;;;11.30;96.60;;;;;;5035186;28;20445;-68
2022/04/16 12:26:27;;;;;;;0.40;0.40;;;11.20;97.70;;;;;;5035295;28;20429;-68
2022/04/16 12:29:16;;;;;;;0.40;0.40;;;11.30;98.70;;;;;;5036625;28;20473;-68
2022/04/16 12:32:09;;;;;;;0.40;0.40;;;11.40;99.80;;;;;;5034032;28;20441;-67
2022/04/16 12:34:57;;;;;;;0.40;0.40;;;11.50;98.20;;;;;;5036415;28;20423;-67
2022/04/16 12:37:45;;;;;;;0.50;0.50;;;11.60;96.60;;;;;;5034813;28;20421;-67
2022/04/16 12:40:35;;;;;;;0.40;0.40;;;11.60;94.40;;;;;;5034721;28;20433;-67
2022/04/16 12:43:24;;;;;;;0.40;0.40;;;11.60;92.70;;;;;;5035477;28;20449;-67
2022/04/16 12:46:12;;;;;;;0.40;0.40;;;11.70;93.20;;;;;;5035522;28;20918;-67
2022/04/16 12:49:00;;;;;;;0.40;0.40;;;12.10;93.10;;;;;;5033778;28;20465;-69
2022/04/16 12:51:50;;;;;;;0.50;0.50;;;13.90;92.70;;;;;;5035737;28;20421;-68
2022/04/16 12:54:38;;;;;;;0.40;0.40;;;13.90;91.30;;;;;;5034028;28;20429;-69
2022/04/16 12:57:26;;;;;;;0.60;0.50;;;14.90;83.40;;;;;;5033571;28;20433;-72
2022/04/16 13:00:17;;;;;;;0.40;0.40;;;15.70;79.50;;;;;;5032644;28;20664;-69
2022/04/16 13:03:06;;;;;;;0.50;0.50;;;16.90;78.60;;;;;;5032616;28;20452;-71
2022/04/16 13:05:54;;;;;;;0.40;0.40;;;18.30;74.00;;;;;;5032325;28;20435;-69
2022/04/16 13:08:44;;;;;;;0.40;0.40;;;20.20;72.50;;;;;;5034420;28;20214;-67
2022/04/16 13:11:34;;;;;;;0.40;0.40;;;22.30;65.80;;;;;;5033850;28;20202;-68
2022/04/16 13:14:23;;;;;;;0.40;0.40;;;23.70;55.90;;;;;;5034316;28;20202;-67
2022/04/16 13:17:13;;;;;;;0.50;0.50;;;24.50;52.60;;;;;;5033384;28;20256;-67
2022/04/16 13:20:01;;;;;;;0.40;0.40;;;24.50;49.60;;;;;;5033826;28;20248;-68
2022/04/16 13:22:49;;;;;;;0.65;0.50;;;24.10;49.00;;;;;;5032758;28;20254;-67
2022/04/16 13:25:38;;;;;;;0.40;0.40;;;24.60;48.20;;;;;;5032838;28;20217;-67
2022/04/16 13:28:27;;;;;;;0.40;0.40;;;24.60;46.90;;;;;;5033724;28;20222;-69
2022/04/16 13:31:16;;;;;;;0.50;0.50;;;25.60;44.00;;;;;;5033362;28;20697;-67
2022/04/16 13:34:06;;;;;;;0.40;0.40;;;25.70;42.60;;;;;;5032712;28;20208;-68
2022/04/16 13:36:54;;;;;;;0.40;0.40;;;26.10;44.10;;;;;;5030607;28;20355;-67
2022/04/16 13:42:48;;;;;;;0.40;0.40;;;27.40;41.10;;;;;;5031079;28;20234;-67
2022/04/16 13:45:36;;;;;;;0.40;0.40;;;27.90;40.20;;;;;;5031108;28;20206;-67
2022/04/16 13:48:25;;;;;;;0.40;0.40;;;27.70;39.00;;;;;;5031803;28;20651;-69
2022/04/16 13:51:14;;;;;;;0.40;0.40;;;28.00;37.80;;;;;;5030603;28;20209;-67
2022/04/16 13:54:03;;;;;;;0.40;0.40;;;27.60;37.90;;;;;;5031785;28;20206;-67
2022/04/16 13:56:51;;;;;;;0.90;0.90;;;27.50;38.70;;;;;;5032276;28;20205;-66
2022/04/16 13:59:40;;;;;;;0.40;0.40;;;25.90;39.50;;;;;;5033581;28;20190;-67
2022/04/16 14:02:30;;;;;;;0.50;0.50;;;25.70;40.80;;;;;;5033817;28;20222;-69
2022/04/16 14:08:27;;;;;;;0.40;0.40;;;25.60;40.60;;;;;;5033880;28;20217;-68
2022/04/16 14:11:16;;;;;;;0.40;0.40;;;24.10;40.60;;;;;;5033031;28;20202;-72
2022/04/16 14:14:04;;;;;;;0.40;0.40;;;23.60;41.80;;;;;;5033459;28;20704;-67
2022/04/16 14:16:52;;;;;;;0.40;0.40;;;24.30;41.30;;;;;;5032765;28;20248;-70
2022/04/16 14:19:42;;;;;;;0.40;0.40;;;25.20;41.70;;;;;;5032979;28;20198;-67
2022/04/16 14:22:31;;;;;;;0.40;0.40;;;25.00;41.10;;;;;;5031911;28;20217;-68
2022/04/16 14:25:21;;;;;;;0.40;0.40;;;24.10;41.20;;;;;;5033868;28;20210;-68
2022/04/16 14:28:09;;;;;;;0.40;0.40;;;23.50;40.80;;;;;;5033013;28;20201;-67
2022/04/16 14:30:57;;;;;;;0.40;0.40;;;23.40;42.50;;;;;;5034117;28;20214;-68
2022/04/16 14:33:46;;;;;;;0.40;0.40;;;23.20;42.50;;;;;;5032591;28;20221;-69
2022/04/16 14:36:34;;;;;;;0.40;0.40;;;22.30;42.20;;;;;;5033224;28;20198;-72
2022/04/16 14:39:22;;;;;;;0.40;0.40;;;21.50;42.50;;;;;;5035023;28;20617;-69
2022/04/16 14:42:12;;;;;;;0.40;0.40;;;20.80;43.10;;;;;;5034713;28;20253;-68
2022/04/16 14:45:01;;;;;;;0.45;0.45;;;20.00;43.50;;;;;;5035373;28;20198;-68
2022/04/16 14:47:49;;;;;;;0.40;0.40;;;19.70;43.80;;;;;;5033183;28;20202;-68
2022/04/16 14:50:37;;;;;;;0.40;0.40;;;19.60;43.30;;;;;;5032335;28;20205;-68
2022/04/16 14:53:25;;;;;;;0.40;0.40;;;19.90;42.80;;;;;;5032025;28;20225;-68
2022/04/16 14:56:14;;;;;;;0.82;0.70;;;20.00;42.00;;;;;;5032371;28;20201;-68
2022/04/16 14:59:04;;;;;;;0.40;0.40;;;21.00;42.40;;;;;;5031267;28;20198;-68
2022/04/16 15:01:52;;;;;;;0.40;0.40;;;23.40;40.30;;;;;;5032970;28;20202;-67
2022/04/16 15:04:40;;;;;;;0.40;0.40;;;23.60;41.10;;;;;;5035622;28;20210;-68
2022/04/16 15:07:30;;;;;;;0.45;0.45;;;25.50;39.80;;;;;;5035627;28;20205;-70
2022/04/16 15:10:18;;;;;;;0.40;0.40;;;26.20;38.40;;;;;;5035409;28;20217;-69
2022/04/16 15:13:06;;;;;;;0.40;0.40;;;26.40;37.00;;;;;;5034578;28;20226;-69
2022/04/16 15:15:56;;;;;;;0.40;0.40;;;25.90;37.20;;;;;;5033826;28;20281;-70
2022/04/16 15:18:44;;;;;;;0.40;0.40;;;24.90;38.20;;;;;;5035537;28;20329;-67
2022/04/16 15:21:33;;;;;;;0.40;0.40;;;24.40;39.20;;;;;;5034567;28;20579;-69